sensor_id;sensor_type;location;lat;lon;timestamp;pressure;altitude;pressure_sealevel;temperature;humidity
25855;BME280;13680;49.936;11.344;2023-12-20T00:01:21;96512.22;;;5.89;93.08
25855;BME280;13680;49.936;11.344;2023-12-20T00:03:47;96509.66;;;5.73;93.45
25855;BME280;13680;49.936;11.344;2023-12-20T00:06:12;96507.28;;;5.67;94.45
25855;BME280;13680;49.936;11.344;2023-12-20T00:08:37;96504.31;;;5.68;95.03
25855;BME280;13680;49.936;11.344;2023-12-20T00:11:02;96499.13;;;5.93;92.94
25855;BME280;13680;49.936;11.344;2023-12-20T00:13:28;96493.00;;;6.02;92.09
25855;BME280;13680;49.936;11.344;2023-12-20T00:15:53;96484.47;;;5.90;92.34
25855;BME280;13680;49.936;11.344;2023-12-20T00:18:18;96485.03;;;5.87;93.26
25855;BME280;13680;49.936;11.344;2023-12-20T00:20:44;96493.88;;;5.77;93.53
25855;BME280;13680;49.936;11.344;2023-12-20T00:23:09;96489.06;;;5.84;93.60
25855;BME280;13680;49.936;11.344;2023-12-20T00:25:34;96488.03;;;5.70;93.75
25855;BME280;13680;49.936;11.344;2023-12-20T00:28:00;96483.19;;;5.82;93.48
25855;BME280;13680;49.936;11.344;2023-12-20T00:30:26;96479.47;;;5.78;93.57
25855;BME280;13680;49.936;11.344;2023-12-20T00:32:51;96481.88;;;5.80;93.15
25855;BME280;13680;49.936;11.344;2023-12-20T00:35:17;96493.84;;;5.87;92.54
25855;BME280;13680;49.936;11.344;2023-12-20T00:37:43;96482.53;;;5.51;94.82
25855;BME280;13680;49.936;11.344;2023-12-20T00:40:09;96488.31;;;5.68;95.47
25855;BME280;13680;49.936;11.344;2023-12-20T00:42:34;96485.00;;;5.92;93.18
25855;BME280;13680;49.936;11.344;2023-12-20T00:45:01;96488.22;;;5.89;92.39
25855;BME280;13680;49.936;11.344;2023-12-20T00:47:26;96476.91;;;6.13;91.02
25855;BME280;13680;49.936;11.344;2023-12-20T00:49:51;96485.72;;;5.53;93.09
25855;BME280;13680;49.936;11.344;2023-12-20T00:52:18;96485.69;;;5.58;94.09
25855;BME280;13680;49.936;11.344;2023-12-20T00:54:43;96480.25;;;5.84;93.32
25855;BME280;13680;49.936;11.344;2023-12-20T00:57:09;96472.53;;;5.77;93.05
25855;BME280;13680;49.936;11.344;2023-12-20T00:59:34;96475.81;;;5.58;93.90
25855;BME280;13680;49.936;11.344;2023-12-20T01:02:00;96477.78;;;5.43;95.64
25855;BME280;13680;49.936;11.344;2023-12-20T01:04:25;96472.28;;;5.73;93.68
25855;BME280;13680;49.936;11.344;2023-12-20T01:06:52;96473.00;;;5.34;95.38
25855;BME280;13680;49.936;11.344;2023-12-20T01:09:17;96475.25;;;5.67;94.34
25855;BME280;13680;49.936;11.344;2023-12-20T01:11:43;96468.88;;;5.68;93.55
25855;BME280;13680;49.936;11.344;2023-12-20T01:14:09;96462.16;;;5.76;92.54
25855;BME280;13680;49.936;11.344;2023-12-20T01:16:34;96459.44;;;5.86;92.67
25855;BME280;13680;49.936;11.344;2023-12-20T01:19:00;96469.00;;;5.92;91.96
25855;BME280;13680;49.936;11.344;2023-12-20T01:21:25;96451.34;;;5.51;93.17
25855;BME280;13680;49.936;11.344;2023-12-20T01:23:50;96451.59;;;5.55;93.18
25855;BME280;13680;49.936;11.344;2023-12-20T01:26:16;96451.09;;;5.48;93.80
25855;BME280;13680;49.936;11.344;2023-12-20T01:28:41;96455.97;;;5.20;95.00
25855;BME280;13680;49.936;11.344;2023-12-20T01:31:07;96445.72;;;5.53;94.65
25855;BME280;13680;49.936;11.344;2023-12-20T01:33:32;96443.47;;;5.76;92.75
25855;BME280;13680;49.936;11.344;2023-12-20T01:35:57;96434.41;;;5.77;92.27
25855;BME280;13680;49.936;11.344;2023-12-20T01:38:23;96436.53;;;5.74;92.08
25855;BME280;13680;49.936;11.344;2023-12-20T01:40:48;96434.03;;;5.94;90.74
25855;BME280;13680;49.936;11.344;2023-12-20T01:43:13;96430.88;;;5.81;91.50
25855;BME280;13680;49.936;11.344;2023-12-20T01:45:39;96427.41;;;5.86;91.29
25855;BME280;13680;49.936;11.344;2023-12-20T01:48:05;96431.16;;;5.80;91.89
25855;BME280;13680;49.936;11.344;2023-12-20T01:50:31;96428.13;;;5.97;90.58
25855;BME280;13680;49.936;11.344;2023-12-20T01:52:58;96429.00;;;5.87;91.30
25855;BME280;13680;49.936;11.344;2023-12-20T01:55:25;96425.66;;;5.66;92.27
25855;BME280;13680;49.936;11.344;2023-12-20T01:57:52;96420.84;;;5.68;92.32
25855;BME280;13680;49.936;11.344;2023-12-20T02:00:18;96419.19;;;5.77;91.85
25855;BME280;13680;49.936;11.344;2023-12-20T02:02:46;96424.84;;;5.70;91.16
25855;BME280;13680;49.936;11.344;2023-12-20T02:05:13;96419.91;;;5.88;91.15
25855;BME280;13680;49.936;11.344;2023-12-20T02:07:38;96424.34;;;5.63;91.24
25855;BME280;13680;49.936;11.344;2023-12-20T02:10:04;96419.28;;;5.62;92.04
25855;BME280;13680;49.936;11.344;2023-12-20T02:12:30;96415.19;;;5.74;91.30
25855;BME280;13680;49.936;11.344;2023-12-20T02:14:55;96419.41;;;5.86;90.60
25855;BME280;13680;49.936;11.344;2023-12-20T02:17:21;96416.59;;;5.62;91.29
25855;BME280;13680;49.936;11.344;2023-12-20T02:19:47;96405.38;;;5.65;91.33
25855;BME280;13680;49.936;11.344;2023-12-20T02:22:12;96407.88;;;5.90;89.44
25855;BME280;13680;49.936;11.344;2023-12-20T02:24:38;96397.91;;;5.67;90.43
25855;BME280;13680;49.936;11.344;2023-12-20T02:27:06;96408.34;;;5.58;91.24
25855;BME280;13680;49.936;11.344;2023-12-20T02:29:33;96404.34;;;5.61;91.47
25855;BME280;13680;49.936;11.344;2023-12-20T02:31:58;96406.91;;;5.31;92.40
25855;BME280;13680;49.936;11.344;2023-12-20T02:34:23;96406.00;;;5.51;92.14
25855;BME280;13680;49.936;11.344;2023-12-20T02:36:49;96401.13;;;5.58;91.37
25855;BME280;13680;49.936;11.344;2023-12-20T02:39:14;96399.94;;;5.35;92.49
25855;BME280;13680;49.936;11.344;2023-12-20T02:41:39;96397.78;;;5.43;92.22
25855;BME280;13680;49.936;11.344;2023-12-20T02:44:04;96398.25;;;5.50;90.79
25855;BME280;13680;49.936;11.344;2023-12-20T02:46:30;96403.66;;;5.34;91.71
25855;BME280;13680;49.936;11.344;2023-12-20T02:48:55;96400.41;;;5.48;91.59
25855;BME280;13680;49.936;11.344;2023-12-20T02:51:20;96403.56;;;5.60;90.78
25855;BME280;13680;49.936;11.344;2023-12-20T02:53:46;96404.13;;;5.52;90.61
25855;BME280;13680;49.936;11.344;2023-12-20T02:56:11;96400.16;;;5.44;91.66
25855;BME280;13680;49.936;11.344;2023-12-20T02:58:36;96400.41;;;5.48;90.32
25855;BME280;13680;49.936;11.344;2023-12-20T03:01:02;96395.03;;;5.58;90.56
25855;BME280;13680;49.936;11.344;2023-12-20T03:03:27;96397.78;;;5.43;90.88
25855;BME280;13680;49.936;11.344;2023-12-20T03:05:53;96394.56;;;5.40;90.56
25855;BME280;13680;49.936;11.344;2023-12-20T03:08:18;96396.13;;;5.52;90.06
25855;BME280;13680;49.936;11.344;2023-12-20T03:10:43;96398.88;;;5.36;91.71
25855;BME280;13680;49.936;11.344;2023-12-20T03:13:09;96405.38;;;5.15;92.67
25855;BME280;13680;49.936;11.344;2023-12-20T03:15:34;96408.53;;;5.22;92.08
25855;BME280;13680;49.936;11.344;2023-12-20T03:17:59;96417.38;;;5.07;92.54
25855;BME280;13680;49.936;11.344;2023-12-20T03:20:25;96410.66;;;5.25;91.61
25855;BME280;13680;49.936;11.344;2023-12-20T03:22:53;96412.28;;;5.21;91.26
25855;BME280;13680;49.936;11.344;2023-12-20T03:25:18;96413.72;;;4.93;93.40
25855;BME280;13680;49.936;11.344;2023-12-20T03:27:43;96399.25;;;5.14;91.83
25855;BME280;13680;49.936;11.344;2023-12-20T03:30:09;96409.84;;;5.30;91.66
25855;BME280;13680;49.936;11.344;2023-12-20T03:32:34;96412.88;;;4.97;93.27
25855;BME280;13680;49.936;11.344;2023-12-20T03:35:00;96422.78;;;4.86;92.56
25855;BME280;13680;49.936;11.344;2023-12-20T03:37:25;96409.31;;;5.22;92.04
25855;BME280;13680;49.936;11.344;2023-12-20T03:39:50;96412.72;;;5.38;90.78
25855;BME280;13680;49.936;11.344;2023-12-20T03:42:16;96432.03;;;5.10;91.92
25855;BME280;13680;49.936;11.344;2023-12-20T03:44:41;96422.75;;;4.97;91.98
25855;BME280;13680;49.936;11.344;2023-12-20T03:47:07;96418.38;;;5.21;91.47
25855;BME280;13680;49.936;11.344;2023-12-20T03:49:32;96418.66;;;5.20;90.73
25855;BME280;13680;49.936;11.344;2023-12-20T03:51:58;96418.66;;;5.25;91.39
25855;BME280;13680;49.936;11.344;2023-12-20T03:54:24;96412.72;;;5.38;89.96
25855;BME280;13680;49.936;11.344;2023-12-20T03:56:49;96413.28;;;5.30;90.44
25855;BME280;13680;49.936;11.344;2023-12-20T03:59:15;96415.06;;;4.85;91.65
25855;BME280;13680;49.936;11.344;2023-12-20T04:01:43;96431.06;;;4.64;92.82
25855;BME280;13680;49.936;11.344;2023-12-20T04:04:10;96425.66;;;5.05;92.40
25855;BME280;13680;49.936;11.344;2023-12-20T04:06:35;96417.16;;;4.93;92.41
25855;BME280;13680;49.936;11.344;2023-12-20T04:09:01;96416.81;;;5.10;90.93
25855;BME280;13680;49.936;11.344;2023-12-20T04:11:26;96424.09;;;4.94;91.58
25855;BME280;13680;49.936;11.344;2023-12-20T04:13:52;96405.94;;;5.06;91.61
25855;BME280;13680;49.936;11.344;2023-12-20T04:16:17;96413.34;;;5.20;90.60
25855;BME280;13680;49.936;11.344;2023-12-20T04:18:42;96420.25;;;5.26;90.21
25855;BME280;13680;49.936;11.344;2023-12-20T04:21:07;96426.47;;;4.96;90.90
25855;BME280;13680;49.936;11.344;2023-12-20T04:23:33;96424.66;;;4.75;92.85
25855;BME280;13680;49.936;11.344;2023-12-20T04:25:58;96421.94;;;5.06;91.19
25855;BME280;13680;49.936;11.344;2023-12-20T04:28:23;96428.81;;;5.07;90.90
25855;BME280;13680;49.936;11.344;2023-12-20T04:30:49;96426.44;;;5.06;90.63
25855;BME280;13680;49.936;11.344;2023-12-20T04:33:14;96434.28;;;4.56;93.12
25855;BME280;13680;49.936;11.344;2023-12-20T04:35:40;96432.91;;;4.79;92.79
25855;BME280;13680;49.936;11.344;2023-12-20T04:38:06;96434.72;;;4.99;92.39
25855;BME280;13680;49.936;11.344;2023-12-20T04:40:32;96427.84;;;4.83;92.41
25855;BME280;13680;49.936;11.344;2023-12-20T04:42:57;96434.97;;;5.08;91.89
25855;BME280;13680;49.936;11.344;2023-12-20T04:45:22;96434.16;;;5.13;91.00
25855;BME280;13680;49.936;11.344;2023-12-20T04:47:50;96429.63;;;5.13;90.67
25855;BME280;13680;49.936;11.344;2023-12-20T04:50:15;96439.50;;;5.02;91.28
25855;BME280;13680;49.936;11.344;2023-12-20T04:52:41;96446.19;;;5.00;90.63
25855;BME280;13680;49.936;11.344;2023-12-20T04:55:07;96442.16;;;5.02;91.71
25855;BME280;13680;49.936;11.344;2023-12-20T04:57:34;96431.47;;;5.13;91.09
25855;BME280;13680;49.936;11.344;2023-12-20T04:59:59;96427.19;;;5.27;89.73
25855;BME280;13680;49.936;11.344;2023-12-20T05:02:24;96432.13;;;4.84;91.16
25855;BME280;13680;49.936;11.344;2023-12-20T05:04:50;96446.47;;;4.93;90.72
25855;BME280;13680;49.936;11.344;2023-12-20T05:07:17;96450.75;;;4.89;92.43
25855;BME280;13680;49.936;11.344;2023-12-20T05:09:42;96449.88;;;5.14;90.32
25855;BME280;13680;49.936;11.344;2023-12-20T05:12:08;96454.91;;;5.21;89.95
25855;BME280;13680;49.936;11.344;2023-12-20T05:14:33;96440.00;;;5.15;90.22
25855;BME280;13680;49.936;11.344;2023-12-20T05:16:58;96438.13;;;5.15;90.29
25855;BME280;13680;49.936;11.344;2023-12-20T05:19:24;96437.03;;;5.27;89.84
25855;BME280;13680;49.936;11.344;2023-12-20T05:21:50;96441.06;;;5.19;90.02
25855;BME280;13680;49.936;11.344;2023-12-20T05:24:15;96448.75;;;5.25;89.62
25855;BME280;13680;49.936;11.344;2023-12-20T05:26:40;96446.38;;;5.24;89.56
25855;BME280;13680;49.936;11.344;2023-12-20T05:29:06;96446.88;;;5.31;89.15
25855;BME280;13680;49.936;11.344;2023-12-20T05:31:31;96458.13;;;5.18;89.94
25855;BME280;13680;49.936;11.344;2023-12-20T05:33:57;96460.78;;;5.28;89.34
25855;BME280;13680;49.936;11.344;2023-12-20T05:36:22;96456.19;;;5.39;89.00
25855;BME280;13680;49.936;11.344;2023-12-20T05:38:47;96449.34;;;5.17;89.33
25855;BME280;13680;49.936;11.344;2023-12-20T05:41:13;96455.44;;;5.28;89.09
25855;BME280;13680;49.936;11.344;2023-12-20T05:43:39;96463.13;;;5.40;89.00
25855;BME280;13680;49.936;11.344;2023-12-20T05:46:04;96458.84;;;5.39;89.08
25855;BME280;13680;49.936;11.344;2023-12-20T05:48:30;96464.16;;;5.44;88.54
25855;BME280;13680;49.936;11.344;2023-12-20T05:50:55;96466.59;;;5.35;88.50
25855;BME280;13680;49.936;11.344;2023-12-20T05:53:21;96472.50;;;5.27;90.13
25855;BME280;13680;49.936;11.344;2023-12-20T05:55:46;96475.94;;;5.28;89.51
25855;BME280;13680;49.936;11.344;2023-12-20T05:58:12;96468.75;;;5.33;89.61
25855;BME280;13680;49.936;11.344;2023-12-20T06:00:37;96477.81;;;5.32;89.95
25855;BME280;13680;49.936;11.344;2023-12-20T06:03:03;96484.75;;;5.28;90.09
25855;BME280;13680;49.936;11.344;2023-12-20T06:05:30;96473.56;;;5.26;90.85
25855;BME280;13680;49.936;11.344;2023-12-20T06:07:55;96491.22;;;5.06;92.46
25855;BME280;13680;49.936;11.344;2023-12-20T06:10:22;96501.09;;;4.96;93.94
25855;BME280;13680;49.936;11.344;2023-12-20T06:12:48;96487.44;;;5.18;92.87
25855;BME280;13680;49.936;11.344;2023-12-20T06:15:15;96496.00;;;5.04;92.21
25855;BME280;13680;49.936;11.344;2023-12-20T06:17:40;96496.03;;;4.42;96.03
25855;BME280;13680;49.936;11.344;2023-12-20T06:20:07;96500.84;;;4.82;95.28
25855;BME280;13680;49.936;11.344;2023-12-20T06:22:34;96499.19;;;5.01;93.77
25855;BME280;13680;49.936;11.344;2023-12-20T06:24:59;96500.28;;;5.00;93.57
25855;BME280;13680;49.936;11.344;2023-12-20T06:27:24;96504.84;;;4.33;98.17
25855;BME280;13680;49.936;11.344;2023-12-20T06:29:50;96504.56;;;4.75;97.10
25855;BME280;13680;49.936;11.344;2023-12-20T06:32:15;96494.66;;;5.07;95.30
25855;BME280;13680;49.936;11.344;2023-12-20T06:34:40;96495.97;;;5.20;94.02
25855;BME280;13680;49.936;11.344;2023-12-20T06:37:06;96499.41;;;5.31;93.13
25855;BME280;13680;49.936;11.344;2023-12-20T06:39:31;96501.84;;;5.22;93.68
25855;BME280;13680;49.936;11.344;2023-12-20T06:41:56;96497.03;;;5.19;94.14
25855;BME280;13680;49.936;11.344;2023-12-20T06:44:22;96494.16;;;4.84;96.19
25855;BME280;13680;49.936;11.344;2023-12-20T06:46:47;96504.56;;;4.70;97.47
25855;BME280;13680;49.936;11.344;2023-12-20T06:49:12;96506.72;;;4.79;97.91
25855;BME280;13680;49.936;11.344;2023-12-20T06:51:38;96503.50;;;4.87;97.42
25855;BME280;13680;49.936;11.344;2023-12-20T06:54:03;96499.72;;;5.03;96.18
25855;BME280;13680;49.936;11.344;2023-12-20T06:56:28;96506.69;;;4.84;97.50
25855;BME280;13680;49.936;11.344;2023-12-20T06:58:54;96507.78;;;4.57;99.12
25855;BME280;13680;49.936;11.344;2023-12-20T07:01:19;96520.53;;;5.06;96.70
25855;BME280;13680;49.936;11.344;2023-12-20T07:03:44;96515.13;;;5.32;95.00
25855;BME280;13680;49.936;11.344;2023-12-20T07:06:10;96516.81;;;4.87;96.45
25855;BME280;13680;49.936;11.344;2023-12-20T07:08:36;96532.25;;;4.74;96.94
25855;BME280;13680;49.936;11.344;2023-12-20T07:11:01;96529.28;;;5.28;94.92
25855;BME280;13680;49.936;11.344;2023-12-20T07:13:27;96549.53;;;5.23;93.80
25855;BME280;13680;49.936;11.344;2023-12-20T07:15:52;96541.03;;;5.06;95.15
25855;BME280;13680;49.936;11.344;2023-12-20T07:18:17;96539.41;;;5.36;93.37
25855;BME280;13680;49.936;11.344;2023-12-20T07:20:43;96555.59;;;5.55;91.82
25855;BME280;13680;49.936;11.344;2023-12-20T07:23:08;96548.41;;;5.50;91.48
25855;BME280;13680;49.936;11.344;2023-12-20T07:25:33;96555.19;;;5.06;93.95
25855;BME280;13680;49.936;11.344;2023-12-20T07:27:59;96560.50;;;5.06;93.27
25855;BME280;13680;49.936;11.344;2023-12-20T07:30:24;96564.22;;;5.11;93.42
25855;BME280;13680;49.936;11.344;2023-12-20T07:32:49;96565.31;;;4.79;94.63
25855;BME280;13680;49.936;11.344;2023-12-20T07:35:15;96565.28;;;5.10;93.37
25855;BME280;13680;49.936;11.344;2023-12-20T07:37:41;96571.69;;;5.14;92.66
25855;BME280;13680;49.936;11.344;2023-12-20T07:40:07;96573.81;;;5.01;93.48
25855;BME280;13680;49.936;11.344;2023-12-20T07:42:33;96568.50;;;4.86;93.22
25855;BME280;13680;49.936;11.344;2023-12-20T07:44:58;96592.47;;;4.91;93.19
25855;BME280;13680;49.936;11.344;2023-12-20T07:47:24;96572.50;;;4.88;93.65
25855;BME280;13680;49.936;11.344;2023-12-20T07:49:51;96577.56;;;5.00;93.32
25855;BME280;13680;49.936;11.344;2023-12-20T07:52:19;96583.63;;;5.42;92.84
25855;BME280;13680;49.936;11.344;2023-12-20T07:54:44;96576.50;;;5.12;92.60
25855;BME280;13680;49.936;11.344;2023-12-20T07:57:10;96571.16;;;5.12;92.92
25855;BME280;13680;49.936;11.344;2023-12-20T07:59:36;96580.19;;;5.31;91.79
25855;BME280;13680;49.936;11.344;2023-12-20T08:02:01;96593.78;;;5.04;92.17
25855;BME280;13680;49.936;11.344;2023-12-20T08:04:27;96590.84;;;5.26;90.67
25855;BME280;13680;49.936;11.344;2023-12-20T08:06:52;96596.69;;;5.54;89.64
25855;BME280;13680;49.936;11.344;2023-12-20T08:09:18;96592.38;;;5.68;88.86
25855;BME280;13680;49.936;11.344;2023-12-20T08:11:46;96591.06;;;5.55;89.85
25855;BME280;13680;49.936;11.344;2023-12-20T08:14:12;96580.06;;;5.78;88.95
25855;BME280;13680;49.936;11.344;2023-12-20T08:16:37;96582.44;;;5.89;88.10
25855;BME280;13680;49.936;11.344;2023-12-20T08:19:03;96590.88;;;5.11;91.54
25855;BME280;13680;49.936;11.344;2023-12-20T08:21:28;96588.41;;;5.50;89.91
25855;BME280;13680;49.936;11.344;2023-12-20T08:23:53;96586.81;;;5.54;89.80
25855;BME280;13680;49.936;11.344;2023-12-20T08:26:19;96584.09;;;5.65;89.50
25855;BME280;13680;49.936;11.344;2023-12-20T08:28:46;96575.94;;;5.20;92.07
25855;BME280;13680;49.936;11.344;2023-12-20T08:31:15;96581.00;;;5.16;92.98
25855;BME280;13680;49.936;11.344;2023-12-20T08:33:43;96576.94;;;5.50;91.98
25855;BME280;13680;49.936;11.344;2023-12-20T08:36:08;96578.47;;;5.77;90.45
25855;BME280;13680;49.936;11.344;2023-12-20T08:38:33;96590.53;;;5.48;91.44
25855;BME280;13680;49.936;11.344;2023-12-20T08:40:59;96585.19;;;5.53;91.22
25855;BME280;13680;49.936;11.344;2023-12-20T08:43:24;96574.03;;;5.46;91.95
25855;BME280;13680;49.936;11.344;2023-12-20T08:45:50;96575.38;;;5.23;91.13
25855;BME280;13680;49.936;11.344;2023-12-20T08:48:15;96581.75;;;5.53;90.41
25855;BME280;13680;49.936;11.344;2023-12-20T08:50:40;96573.72;;;5.63;89.60
25855;BME280;13680;49.936;11.344;2023-12-20T08:53:05;96582.28;;;5.45;89.04
25855;BME280;13680;49.936;11.344;2023-12-20T08:55:31;96577.56;;;5.11;91.37
25855;BME280;13680;49.936;11.344;2023-12-20T08:57:56;96584.97;;;5.29;90.62
25855;BME280;13680;49.936;11.344;2023-12-20T09:00:22;96598.50;;;5.58;90.76
25855;BME280;13680;49.936;11.344;2023-12-20T09:02:50;96594.22;;;5.73;90.28
25855;BME280;13680;49.936;11.344;2023-12-20T09:05:15;96597.69;;;5.73;89.70
25855;BME280;13680;49.936;11.344;2023-12-20T09:07:41;96604.09;;;5.72;89.08
25855;BME280;13680;49.936;11.344;2023-12-20T09:10:06;96595.03;;;5.63;89.52
25855;BME280;13680;49.936;11.344;2023-12-20T09:12:32;96584.94;;;5.50;89.89
25855;BME280;13680;49.936;11.344;2023-12-20T09:14:57;96598.75;;;5.72;88.67
25855;BME280;13680;49.936;11.344;2023-12-20T09:17:23;96615.41;;;5.28;89.53
25855;BME280;13680;49.936;11.344;2023-12-20T09:19:48;96618.59;;;5.25;90.49
25855;BME280;13680;49.936;11.344;2023-12-20T09:22:14;96607.34;;;5.54;90.39
25855;BME280;13680;49.936;11.344;2023-12-20T09:24:39;96606.50;;;5.64;88.99
25855;BME280;13680;49.936;11.344;2023-12-20T09:27:05;96602.56;;;5.46;88.76
25855;BME280;13680;49.936;11.344;2023-12-20T09:29:30;96614.22;;;5.81;87.70
25855;BME280;13680;49.936;11.344;2023-12-20T09:31:56;96602.53;;;5.56;88.11
25855;BME280;13680;49.936;11.344;2023-12-20T09:34:22;96615.00;;;5.81;87.74
25855;BME280;13680;49.936;11.344;2023-12-20T09:36:48;96609.84;;;6.11;86.30
25855;BME280;13680;49.936;11.344;2023-12-20T09:39:14;96618.97;;;5.89;86.61
25855;BME280;13680;49.936;11.344;2023-12-20T09:41:43;96623.22;;;5.95;84.79
25855;BME280;13680;49.936;11.344;2023-12-20T09:44:14;96634.03;;;5.38;88.97
25855;BME280;13680;49.936;11.344;2023-12-20T09:46:43;96637.53;;;5.03;89.66
25855;BME280;13680;49.936;11.344;2023-12-20T09:49:08;96631.41;;;5.28;89.15
25855;BME280;13680;49.936;11.344;2023-12-20T09:51:34;96625.22;;;5.38;87.90
25855;BME280;13680;49.936;11.344;2023-12-20T09:54:00;96624.66;;;5.62;87.46
25855;BME280;13680;49.936;11.344;2023-12-20T09:56:28;96622.72;;;5.88;85.99
25855;BME280;13680;49.936;11.344;2023-12-20T09:58:54;96628.97;;;5.27;86.40
25855;BME280;13680;49.936;11.344;2023-12-20T10:01:19;96620.38;;;5.66;85.36
25855;BME280;13680;49.936;11.344;2023-12-20T10:03:46;96623.91;;;5.35;85.64
25855;BME280;13680;49.936;11.344;2023-12-20T10:06:11;96625.53;;;5.05;87.12
25855;BME280;13680;49.936;11.344;2023-12-20T10:08:38;96616.47;;;5.12;86.58
25855;BME280;13680;49.936;11.344;2023-12-20T10:11:03;96611.56;;;5.70;84.55
25855;BME280;13680;49.936;11.344;2023-12-20T10:13:29;96604.13;;;5.57;83.79
25855;BME280;13680;49.936;11.344;2023-12-20T10:15:55;96608.94;;;5.50;85.54
25855;BME280;13680;49.936;11.344;2023-12-20T10:18:21;96596.59;;;5.85;83.88
25855;BME280;13680;49.936;11.344;2023-12-20T10:20:47;96593.59;;;6.02;83.21
25855;BME280;13680;49.936;11.344;2023-12-20T10:23:12;96594.41;;;6.02;82.60
25855;BME280;13680;49.936;11.344;2023-12-20T10:25:39;96592.81;;;5.96;82.96
25855;BME280;13680;49.936;11.344;2023-12-20T10:28:12;96587.44;;;6.06;83.62
25855;BME280;13680;49.936;11.344;2023-12-20T10:30:39;96594.53;;;5.56;85.41
25855;BME280;13680;49.936;11.344;2023-12-20T10:33:07;96583.25;;;5.85;84.78
25855;BME280;13680;49.936;11.344;2023-12-20T10:35:33;96582.19;;;5.86;84.71
25855;BME280;13680;49.936;11.344;2023-12-20T10:38:03;96581.72;;;5.58;85.27
25855;BME280;13680;49.936;11.344;2023-12-20T10:40:29;96581.88;;;5.93;84.61
25855;BME280;13680;49.936;11.344;2023-12-20T10:42:55;96574.94;;;5.92;83.99
25855;BME280;13680;49.936;11.344;2023-12-20T10:45:21;96574.56;;;5.43;85.99
25855;BME280;13680;49.936;11.344;2023-12-20T10:47:49;96574.56;;;5.43;85.27
25855;BME280;13680;49.936;11.344;2023-12-20T10:50:15;96563.13;;;5.32;86.34
25855;BME280;13680;49.936;11.344;2023-12-20T10:52:41;96573.09;;;5.87;84.94
25855;BME280;13680;49.936;11.344;2023-12-20T10:55:08;96562.41;;;5.92;84.37
25855;BME280;13680;49.936;11.344;2023-12-20T10:57:35;96568.56;;;5.87;84.93
25855;BME280;13680;49.936;11.344;2023-12-20T11:00:02;96564.91;;;5.68;84.79
25855;BME280;13680;49.936;11.344;2023-12-20T11:02:37;96561.44;;;5.62;84.74
25855;BME280;13680;49.936;11.344;2023-12-20T11:08:17;96557.63;;;5.84;84.32
25855;BME280;13680;49.936;11.344;2023-12-20T11:10:55;96553.72;;;6.21;83.36
25855;BME280;13680;49.936;11.344;2023-12-20T11:13:30;96547.28;;;6.27;82.72
25855;BME280;13680;49.936;11.344;2023-12-20T11:15:57;96545.75;;;6.16;82.68
25855;BME280;13680;49.936;11.344;2023-12-20T11:18:29;96547.56;;;5.65;83.95
25855;BME280;13680;49.936;11.344;2023-12-20T11:20:54;96542.63;;;5.98;84.45
25855;BME280;13680;49.936;11.344;2023-12-20T11:23:20;96539.66;;;6.10;83.22
25855;BME280;13680;49.936;11.344;2023-12-20T11:25:52;96536.72;;;6.06;82.82
25855;BME280;13680;49.936;11.344;2023-12-20T11:28:22;96539.97;;;5.93;83.66
25855;BME280;13680;49.936;11.344;2023-12-20T11:30:49;96540.84;;;5.78;83.98
25855;BME280;13680;49.936;11.344;2023-12-20T11:33:15;96534.53;;;5.53;85.58
25855;BME280;13680;49.936;11.344;2023-12-20T11:35:41;96541.19;;;5.56;86.44
25855;BME280;13680;49.936;11.344;2023-12-20T11:38:08;96548.66;;;5.59;85.70
25855;BME280;13680;49.936;11.344;2023-12-20T11:40:35;96545.38;;;5.72;85.10
25855;BME280;13680;49.936;11.344;2023-12-20T11:43:00;96551.22;;;5.85;84.66
25855;BME280;13680;49.936;11.344;2023-12-20T11:45:25;96543.38;;;5.44;85.83
25855;BME280;13680;49.936;11.344;2023-12-20T11:47:52;96547.84;;;5.53;85.47
25855;BME280;13680;49.936;11.344;2023-12-20T11:50:20;96546.63;;;5.90;84.22
25855;BME280;13680;49.936;11.344;2023-12-20T11:52:46;96539.56;;;5.65;84.38
25855;BME280;13680;49.936;11.344;2023-12-20T11:55:12;96543.34;;;5.54;84.68
25855;BME280;13680;49.936;11.344;2023-12-20T11:57:37;96546.84;;;5.39;84.54
25855;BME280;13680;49.936;11.344;2023-12-20T12:00:04;96532.31;;;5.71;84.31
25855;BME280;13680;49.936;11.344;2023-12-20T12:02:30;96529.72;;;5.55;83.76
25855;BME280;13680;49.936;11.344;2023-12-20T12:04:56;96547.91;;;5.38;84.33
25855;BME280;13680;49.936;11.344;2023-12-20T12:07:22;96539.31;;;5.62;84.50
25855;BME280;13680;49.936;11.344;2023-12-20T12:09:47;96528.63;;;5.67;83.42
25855;BME280;13680;49.936;11.344;2023-12-20T12:12:13;96532.75;;;5.28;86.33
25855;BME280;13680;49.936;11.344;2023-12-20T12:14:38;96529.72;;;5.55;85.33
25855;BME280;13680;49.936;11.344;2023-12-20T12:17:10;96532.25;;;5.11;87.19
25855;BME280;13680;49.936;11.344;2023-12-20T12:19:35;96514.22;;;5.68;86.08
25855;BME280;13680;49.936;11.344;2023-12-20T12:22:09;96520.16;;;5.44;85.73
25855;BME280;13680;49.936;11.344;2023-12-20T12:24:40;96515.84;;;5.53;84.38
25855;BME280;13680;49.936;11.344;2023-12-20T12:27:08;96514.47;;;5.66;85.15
25855;BME280;13680;49.936;11.344;2023-12-20T12:29:35;96519.78;;;5.77;84.27
25855;BME280;13680;49.936;11.344;2023-12-20T12:32:00;96515.31;;;5.56;84.63
25855;BME280;13680;49.936;11.344;2023-12-20T12:34:29;96523.59;;;5.60;84.01
25855;BME280;13680;49.936;11.344;2023-12-20T12:36:55;96511.59;;;5.57;84.34
25855;BME280;13680;49.936;11.344;2023-12-20T12:39:20;96517.38;;;5.75;83.82
25855;BME280;13680;49.936;11.344;2023-12-20T12:41:46;96512.28;;;5.79;82.45
25855;BME280;13680;49.936;11.344;2023-12-20T12:44:12;96517.97;;;6.17;81.93
25855;BME280;13680;49.936;11.344;2023-12-20T12:46:38;96510.47;;;6.24;81.38
25855;BME280;13680;49.936;11.344;2023-12-20T12:49:03;96511.25;;;5.74;82.35
25855;BME280;13680;49.936;11.344;2023-12-20T12:51:29;96512.28;;;5.79;81.79
25855;BME280;13680;49.936;11.344;2023-12-20T12:53:54;96508.66;;;5.54;83.12
25855;BME280;13680;49.936;11.344;2023-12-20T12:56:19;96524.50;;;5.24;83.03